Time;durP1;ratioP1;P1;durP2;ratioP2;P2;SDS_P1;SDS_P2;PMS_P1;PMS_P2;Temp;Humidity;BMP_temperature;BMP_pressure;BME280_temperature;BME280_humidity;BME280_pressure;Samples;Min_cycle;Max_cycle;Signal;HPM_P1;HPM_P2
2022/07/10 00:00:17;;;;;;;11.30;2.33;;;17.60;70.50;;;;;;5030259;28;20112;-73
2022/07/10 00:02:43;;;;;;;6.65;1.50;;;17.70;70.70;;;;;;4998301;28;20022;-73
2022/07/10 00:05:10;;;;;;;8.25;1.52;;;17.70;70.60;;;;;;5010675;28;20025;-73
2022/07/10 00:07:36;;;;;;;8.18;1.60;;;17.70;70.70;;;;;;5025803;28;20108;-73
2022/07/10 00:10:03;;;;;;;9.38;1.83;;;17.70;70.90;;;;;;5010165;28;20105;-73
2022/07/10 00:12:29;;;;;;;4.90;1.15;;;17.60;71.00;;;;;;5012044;28;20026;-73
2022/07/10 00:14:55;;;;;;;8.82;2.03;;;17.70;71.10;;;;;;5010236;28;20109;-73
2022/07/10 00:17:20;;;;;;;6.80;1.48;;;17.70;71.20;;;;;;5016158;28;20079;-73
2022/07/10 00:19:46;;;;;;;6.90;1.42;;;17.70;71.30;;;;;;5024570;28;20095;-73
2022/07/10 00:22:12;;;;;;;7.20;1.83;;;17.70;71.20;;;;;;5017864;28;20033;-72
2022/07/10 00:24:38;;;;;;;6.53;1.45;;;17.80;71.20;;;;;;5016995;28;20029;-72
2022/07/10 00:27:04;;;;;;;5.28;1.23;;;17.80;71.20;;;;;;5011807;28;20108;-72
2022/07/10 00:29:29;;;;;;;6.32;1.58;;;17.70;71.20;;;;;;5019847;28;20030;-72
2022/07/10 00:31:55;;;;;;;9.00;1.65;;;17.70;71.40;;;;;;5011498;28;20045;-72
2022/07/10 00:34:21;;;;;;;4.80;1.48;;;17.70;71.20;;;;;;5022709;28;20014;-73
2022/07/10 00:36:46;;;;;;;6.00;1.65;;;17.80;71.30;;;;;;5028002;28;20045;-72
2022/07/10 00:39:12;;;;;;;7.13;1.58;;;17.70;71.10;;;;;;5018192;28;20080;-72
2022/07/10 00:41:38;;;;;;;7.50;1.67;;;17.80;71.20;;;;;;5029098;28;20057;-72
2022/07/10 00:44:03;;;;;;;7.03;1.50;;;17.80;71.00;;;;;;5016604;28;20026;-73
2022/07/10 00:46:32;;;;;;;6.97;1.50;;;17.80;70.90;;;;;;5029009;28;20041;-73
2022/07/10 00:48:58;;;;;;;6.28;1.50;;;17.80;70.60;;;;;;5016460;28;20026;-73
2022/07/10 00:51:28;;;;;;;7.07;1.40;;;17.80;70.70;;;;;;5031670;28;20676;-73
2022/07/10 00:53:56;;;;;;;5.90;1.27;;;17.80;70.70;;;;;;5022349;28;20049;-73
2022/07/10 00:56:25;;;;;;;4.22;1.08;;;17.80;70.70;;;;;;5030800;28;20044;-73
2022/07/10 00:58:51;;;;;;;6.63;1.55;;;17.90;70.70;;;;;;5024350;28;20033;-73
2022/07/10 01:01:18;;;;;;;6.15;1.42;;;17.90;70.90;;;;;;5029416;28;20026;-73
2022/07/10 01:03:45;;;;;;;3.80;1.20;;;17.90;70.80;;;;;;5026651;28;20528;-72
2022/07/10 01:06:12;;;;;;;7.93;1.58;;;17.90;70.70;;;;;;5030454;28;20045;-73
2022/07/10 01:08:37;;;;;;;5.85;1.35;;;17.90;70.50;;;;;;5031765;28;20116;-73
2022/07/10 01:11:03;;;;;;;7.20;1.98;;;17.90;70.30;;;;;;5021499;28;20480;-73
2022/07/10 01:13:29;;;;;;;8.25;1.40;;;17.90;70.30;;;;;;5025063;28;20033;-74
2022/07/10 01:15:55;;;;;;;6.80;1.95;;;17.90;70.30;;;;;;5022291;28;20053;-73
2022/07/10 01:18:21;;;;;;;6.65;1.90;;;17.90;70.50;;;;;;5032007;28;20029;-73
2022/07/10 01:20:54;;;;;;;9.10;1.77;;;17.80;70.40;;;;;;5027678;28;20025;-73
2022/07/10 01:23:20;;;;;;;8.23;1.58;;;17.80;70.60;;;;;;5022251;28;20072;-75
2022/07/10 01:25:46;;;;;;;9.07;1.50;;;17.80;70.80;;;;;;5022624;28;20029;-73
2022/07/10 01:28:11;;;;;;;4.43;1.38;;;17.70;70.50;;;;;;5033176;28;20033;-74
2022/07/10 01:30:37;;;;;;;6.93;1.40;;;17.70;70.80;;;;;;5020858;28;20029;-74
2022/07/10 01:33:03;;;;;;;7.45;2.05;;;17.60;71.00;;;;;;5034429;28;20025;-74
2022/07/10 01:35:28;;;;;;;9.25;1.73;;;17.60;71.10;;;;;;5032144;28;20044;-73
2022/07/10 01:37:54;;;;;;;6.82;1.38;;;17.60;71.30;;;;;;5022520;28;20518;-73
2022/07/10 01:40:20;;;;;;;5.07;1.50;;;17.50;71.50;;;;;;5023472;28;20022;-74
2022/07/10 01:42:46;;;;;;;5.47;1.42;;;17.50;71.70;;;;;;5030073;28;20030;-73
2022/07/10 01:45:11;;;;;;;4.47;1.60;;;17.50;71.60;;;;;;5025619;28;20281;-73
2022/07/10 01:47:37;;;;;;;6.20;1.52;;;17.50;71.70;;;;;;5009623;28;20049;-74
2022/07/10 01:50:04;;;;;;;9.25;1.55;;;17.40;71.80;;;;;;5027144;28;20049;-74
2022/07/10 01:52:29;;;;;;;7.45;2.03;;;17.40;71.90;;;;;;5015809;28;20457;-74
2022/07/10 01:54:55;;;;;;;4.72;1.63;;;17.40;72.00;;;;;;5016369;28;20025;-73
2022/07/10 01:57:20;;;;;;;5.10;1.55;;;17.30;72.10;;;;;;5021893;28;20037;-73
2022/07/10 01:59:46;;;;;;;11.32;1.80;;;17.30;72.30;;;;;;5030749;28;20484;-73
2022/07/10 02:02:12;;;;;;;6.47;1.73;;;17.30;72.40;;;;;;5002069;28;20024;-73
2022/07/10 02:04:40;;;;;;;4.28;1.27;;;17.30;72.60;;;;;;5032005;28;20029;-73
2022/07/10 02:07:13;;;;;;;6.65;1.33;;;17.30;72.60;;;;;;5020339;28;20029;-73
2022/07/10 02:09:39;;;;;;;3.50;1.17;;;17.20;72.60;;;;;;5032610;28;20140;-73
2022/07/10 02:12:15;;;;;;;8.38;2.45;;;17.20;72.60;;;;;;5023335;28;20633;-73
2022/07/10 02:14:41;;;;;;;3.22;1.20;;;17.20;72.60;;;;;;5012118;28;20025;-73
2022/07/10 02:17:08;;;;;;;7.60;2.05;;;17.20;72.60;;;;;;5023802;28;20042;-73
2022/07/10 02:19:34;;;;;;;5.65;1.67;;;17.20;72.60;;;;;;5012203;28;20396;-74
2022/07/10 02:22:00;;;;;;;7.28;1.60;;;17.20;72.50;;;;;;5016059;28;20396;-73
2022/07/10 02:24:26;;;;;;;6.63;1.33;;;17.20;72.60;;;;;;5030118;28;20036;-72
2022/07/10 02:26:52;;;;;;;5.97;1.80;;;17.10;72.80;;;;;;5030055;28;20105;-73
2022/07/10 02:29:18;;;;;;;7.35;1.80;;;17.10;73.10;;;;;;5015591;28;20037;-73
2022/07/10 02:31:43;;;;;;;8.45;1.92;;;17.00;73.20;;;;;;4997981;28;20093;-73
2022/07/10 02:34:10;;;;;;;6.63;1.35;;;17.00;73.30;;;;;;5025851;28;20193;-73
2022/07/10 02:36:38;;;;;;;5.38;1.50;;;16.90;73.40;;;;;;5029239;28;20039;-73
2022/07/10 02:39:04;;;;;;;9.75;1.58;;;16.90;73.60;;;;;;5024457;28;20029;-73
2022/07/10 02:41:30;;;;;;;8.80;1.70;;;16.90;73.70;;;;;;5029576;28;20028;-73
2022/07/10 02:43:57;;;;;;;7.15;2.00;;;16.90;73.80;;;;;;5022066;28;20030;-74
2022/07/10 02:46:22;;;;;;;7.28;1.80;;;17.00;74.10;;;;;;5013367;28;20025;-73
2022/07/10 02:48:48;;;;;;;8.85;1.75;;;17.00;74.00;;;;;;5022689;28;20018;-73
2022/07/10 02:51:14;;;;;;;7.53;1.98;;;17.00;73.90;;;;;;5024475;28;20551;-73
2022/07/10 02:53:40;;;;;;;7.72;1.88;;;17.10;74.00;;;;;;5001592;28;20494;-74
2022/07/10 02:56:06;;;;;;;5.00;1.52;;;17.10;74.00;;;;;;5030736;28;20087;-73
2022/07/10 02:58:32;;;;;;;6.78;1.70;;;17.10;74.20;;;;;;5018477;28;20033;-73
2022/07/10 03:00:58;;;;;;;9.23;2.22;;;17.10;74.20;;;;;;5030965;28;20025;-73
2022/07/10 03:03:24;;;;;;;4.63;1.60;;;17.00;74.40;;;;;;5019628;28;20022;-73
2022/07/10 03:05:49;;;;;;;7.72;2.03;;;17.00;74.40;;;;;;5030052;28;20439;-73
2022/07/10 03:08:15;;;;;;;8.05;1.85;;;17.00;74.60;;;;;;5021020;28;20129;-73
2022/07/10 03:10:41;;;;;;;5.38;1.50;;;17.00;74.50;;;;;;5027725;28;20025;-73
2022/07/10 03:13:07;;;;;;;8.63;1.70;;;17.00;74.50;;;;;;5025851;28;20336;-73
2022/07/10 03:15:32;;;;;;;6.82;1.83;;;17.00;74.50;;;;;;5016937;28;20049;-73
2022/07/10 03:17:58;;;;;;;5.78;1.75;;;17.00;74.60;;;;;;5026341;28;20029;-73
2022/07/10 03:20:24;;;;;;;7.30;1.65;;;16.90;74.70;;;;;;5019093;28;20022;-73
2022/07/10 03:22:50;;;;;;;5.20;1.65;;;16.90;74.80;;;;;;5001378;28;20468;-74
2022/07/10 03:25:15;;;;;;;6.72;1.40;;;16.90;74.80;;;;;;5037527;28;20387;-73
2022/07/10 03:27:41;;;;;;;6.57;1.40;;;17.00;74.80;;;;;;5028556;28;20036;-74
2022/07/10 03:30:07;;;;;;;5.90;1.75;;;17.00;74.80;;;;;;5018143;28;20026;-74
2022/07/10 03:32:33;;;;;;;5.00;1.60;;;16.90;74.80;;;;;;5028415;28;20372;-74
2022/07/10 03:35:00;;;;;;;5.93;1.65;;;16.90;75.00;;;;;;4999946;28;20131;-74
2022/07/10 03:37:25;;;;;;;6.85;1.88;;;16.90;75.00;;;;;;5024340;28;20837;-73
2022/07/10 03:39:51;;;;;;;10.95;2.38;;;16.90;75.10;;;;;;5022603;28;20032;-74
2022/07/10 03:42:17;;;;;;;6.53;1.70;;;16.90;75.30;;;;;;5011199;28;20037;-74
2022/07/10 03:44:44;;;;;;;5.35;1.30;;;16.90;75.20;;;;;;5022453;28;20017;-74
2022/07/10 03:47:10;;;;;;;8.23;2.10;;;17.00;75.30;;;;;;5036429;28;20085;-74
2022/07/10 03:49:38;;;;;;;8.05;1.95;;;17.00;75.30;;;;;;5005469;28;20026;-74
2022/07/10 03:52:04;;;;;;;7.00;1.50;;;16.90;75.40;;;;;;5027670;28;20056;-75
2022/07/10 03:54:30;;;;;;;7.18;1.60;;;16.90;75.60;;;;;;5022214;28;20120;-74
2022/07/10 03:59:41;;;;;;;7.75;1.60;;;16.90;75.80;;;;;;5022750;28;20145;-74
2022/07/10 04:02:09;;;;;;;4.90;1.73;;;16.90;75.80;;;;;;5010613;28;20047;-73
2022/07/10 04:04:35;;;;;;;9.75;2.13;;;16.90;75.90;;;;;;5014248;28;20018;-73
2022/07/10 04:07:03;;;;;;;8.57;1.80;;;16.90;76.00;;;;;;5022432;28;20447;-73
2022/07/10 04:09:29;;;;;;;8.20;1.90;;;16.90;76.30;;;;;;5026722;28;20017;-74
2022/07/10 04:11:56;;;;;;;7.25;1.80;;;16.90;76.20;;;;;;5019224;28;20459;-73
2022/07/10 04:14:21;;;;;;;9.07;1.90;;;16.90;76.10;;;;;;5012020;28;20035;-74
2022/07/10 04:16:47;;;;;;;6.55;1.75;;;17.00;76.00;;;;;;5020596;28;20034;-74
2022/07/10 04:19:13;;;;;;;6.25;2.00;;;17.00;75.90;;;;;;5010706;28;20037;-73
2022/07/10 04:21:38;;;;;;;10.25;1.92;;;17.00;75.90;;;;;;5021004;28;20100;-73
2022/07/10 04:24:04;;;;;;;7.47;1.75;;;17.00;75.80;;;;;;5009551;28;20026;-74
2022/07/10 04:26:30;;;;;;;7.72;2.10;;;17.00;75.80;;;;;;5021892;28;20034;-74
2022/07/10 04:28:55;;;;;;;8.25;2.25;;;17.00;75.90;;;;;;5009851;28;20033;-74
2022/07/10 04:31:21;;;;;;;6.28;1.63;;;17.00;76.00;;;;;;5013881;28;20030;-73
2022/07/10 04:33:46;;;;;;;13.75;2.63;;;17.00;75.90;;;;;;5029071;28;20044;-74
2022/07/10 04:36:12;;;;;;;9.88;1.80;;;17.10;76.00;;;;;;5019942;28;20026;-74
2022/07/10 04:38:38;;;;;;;8.35;2.38;;;17.10;75.90;;;;;;5010162;28;20053;-74
2022/07/10 04:41:03;;;;;;;9.43;1.90;;;17.10;75.80;;;;;;5016237;28;20088;-73
2022/07/10 04:43:30;;;;;;;9.02;2.55;;;17.00;75.70;;;;;;5021796;28;20033;-74
2022/07/10 04:45:56;;;;;;;5.82;1.55;;;17.10;75.80;;;;;;5024886;28;20014;-74
2022/07/10 04:48:21;;;;;;;3.95;1.33;;;17.10;75.70;;;;;;5021144;28;20029;-74
2022/07/10 04:50:47;;;;;;;4.53;1.80;;;17.20;75.70;;;;;;5027199;28;20048;-74
2022/07/10 04:53:13;;;;;;;10.27;1.90;;;17.10;75.50;;;;;;5018101;28;20055;-74
2022/07/10 04:55:38;;;;;;;9.35;2.10;;;17.10;75.60;;;;;;5027399;28;20065;-73
2022/07/10 04:58:04;;;;;;;7.80;1.73;;;17.10;75.70;;;;;;5027853;28;20037;-73
2022/07/10 05:00:32;;;;;;;7.90;2.15;;;17.10;75.60;;;;;;5028195;28;20025;-72
2022/07/10 05:02:57;;;;;;;7.20;1.33;;;17.20;75.50;;;;;;4999119;28;20025;-72
2022/07/10 05:05:23;;;;;;;3.80;0.88;;;17.10;75.50;;;;;;5028921;28;20018;-72
2022/07/10 05:07:49;;;;;;;6.55;1.80;;;17.20;75.50;;;;;;5022602;28;20017;-73
2022/07/10 05:10:14;;;;;;;8.45;1.58;;;17.20;75.40;;;;;;5009485;28;20084;-74
2022/07/10 05:12:40;;;;;;;9.93;1.60;;;17.30;75.30;;;;;;5015120;28;20022;-72
2022/07/10 05:15:06;;;;;;;5.88;1.45;;;17.30;75.20;;;;;;5009177;28;20034;-73
2022/07/10 05:17:32;;;;;;;6.13;1.55;;;17.40;75.10;;;;;;5013289;28;20558;-73
2022/07/10 05:19:58;;;;;;;7.63;1.85;;;17.40;74.80;;;;;;5007419;28;20025;-72
2022/07/10 05:22:24;;;;;;;12.50;2.08;;;17.40;74.60;;;;;;5022975;28;20048;-72
2022/07/10 05:24:50;;;;;;;9.35;2.40;;;17.40;74.50;;;;;;5024229;28;20113;-72
2022/07/10 05:27:20;;;;;;;7.97;1.80;;;17.50;74.80;;;;;;5023737;28;20093;-74
2022/07/10 05:29:46;;;;;;;7.40;1.98;;;17.50;74.70;;;;;;5021338;28;20152;-73
2022/07/10 05:32:12;;;;;;;6.57;1.65;;;17.50;74.80;;;;;;5020100;28;20093;-72
2022/07/10 05:34:37;;;;;;;8.13;1.85;;;17.50;75.20;;;;;;5017515;28;20571;-73
2022/07/10 05:37:03;;;;;;;9.48;2.10;;;17.50;75.30;;;;;;5019138;28;20110;-74
2022/07/10 05:39:29;;;;;;;7.72;1.40;;;17.50;75.00;;;;;;5024760;28;20100;-72
2022/07/10 05:41:55;;;;;;;13.20;2.58;;;17.60;74.90;;;;;;5021600;28;20043;-73
2022/07/10 05:44:21;;;;;;;5.40;1.48;;;17.70;74.90;;;;;;5025106;28;20077;-74
2022/07/10 05:46:47;;;;;;;10.05;2.50;;;17.70;74.70;;;;;;5022979;28;20025;-73
2022/07/10 05:49:13;;;;;;;8.70;1.58;;;17.70;74.50;;;;;;5021667;28;20598;-73
2022/07/10 05:51:38;;;;;;;10.70;1.50;;;17.70;74.60;;;;;;5021349;28;20427;-73
2022/07/10 05:54:04;;;;;;;9.55;1.65;;;17.70;74.60;;;;;;5018655;28;20077;-73
2022/07/10 05:56:30;;;;;;;9.30;1.83;;;17.70;74.90;;;;;;5021843;28;20017;-73
2022/07/10 05:58:56;;;;;;;10.80;1.90;;;17.70;74.80;;;;;;5022310;28;20044;-74
2022/07/10 06:01:23;;;;;;;6.60;2.03;;;17.70;75.10;;;;;;5018808;28;20018;-75
2022/07/10 06:03:48;;;;;;;8.75;1.77;;;17.70;75.30;;;;;;5018551;28;20036;-75
2022/07/10 06:06:17;;;;;;;10.63;2.03;;;17.60;75.10;;;;;;5000872;28;20160;-75
2022/07/10 06:08:45;;;;;;;6.63;2.05;;;17.70;75.50;;;;;;5020052;28;20033;-74
2022/07/10 06:11:11;;;;;;;7.97;1.55;;;17.70;75.70;;;;;;5027639;28;20137;-75
2022/07/10 06:13:37;;;;;;;11.63;2.10;;;17.60;76.10;;;;;;5028870;28;20062;-73
2022/07/10 06:16:06;;;;;;;10.98;2.33;;;17.60;77.30;;;;;;5026575;28;20378;-74
2022/07/10 06:18:32;;;;;;;9.27;1.95;;;17.50;78.00;;;;;;5024818;28;20079;-73
2022/07/10 06:20:58;;;;;;;11.95;2.20;;;17.50;78.90;;;;;;5023304;28;20026;-74
2022/07/10 06:23:24;;;;;;;11.30;2.13;;;17.50;79.00;;;;;;5005897;28;20022;-74
2022/07/10 06:25:50;;;;;;;10.57;2.15;;;17.50;79.60;;;;;;5020842;28;20033;-72
2022/07/10 06:28:16;;;;;;;9.75;2.45;;;17.40;80.40;;;;;;5004388;28;20026;-73
2022/07/10 06:30:42;;;;;;;9.30;2.15;;;17.50;80.20;;;;;;5018519;28;20018;-74
2022/07/10 06:33:08;;;;;;;13.38;2.10;;;17.40;80.10;;;;;;5023297;28;20108;-73
2022/07/10 06:35:34;;;;;;;9.48;2.80;;;17.40;79.90;;;;;;5018185;28;20101;-73
2022/07/10 06:38:01;;;;;;;9.48;2.33;;;17.40;80.30;;;;;;5020222;28;20091;-74
2022/07/10 06:40:29;;;;;;;12.50;2.85;;;17.50;80.80;;;;;;5018612;28;20014;-73
2022/07/10 06:42:54;;;;;;;6.20;2.22;;;17.50;81.50;;;;;;5020440;28;20022;-72
2022/07/10 06:45:20;;;;;;;7.38;1.92;;;17.50;81.60;;;;;;5017153;28;20017;-73
2022/07/10 06:47:59;;;;;;;7.63;2.00;;;17.50;81.60;;;;;;5023394;28;20037;-73
2022/07/10 06:50:34;;;;;;;11.60;2.30;;;17.60;81.90;;;;;;5022739;28;20052;-73
2022/07/10 06:53:01;;;;;;;13.52;2.70;;;17.50;82.70;;;;;;5015350;28;20124;-73
2022/07/10 06:55:27;;;;;;;10.05;2.35;;;17.50;83.30;;;;;;5014835;28;20022;-72
2022/07/10 06:57:53;;;;;;;8.63;2.65;;;17.50;83.50;;;;;;5012638;28;20044;-72
2022/07/10 07:00:19;;;;;;;12.35;2.65;;;17.50;84.50;;;;;;5016478;28;20172;-71
2022/07/10 07:02:45;;;;;;;9.32;2.45;;;17.50;85.00;;;;;;5018807;28;20080;-73
2022/07/10 07:05:11;;;;;;;14.15;3.33;;;17.50;85.30;;;;;;5025787;28;20028;-73
2022/07/10 07:07:37;;;;;;;7.03;1.85;;;17.50;85.40;;;;;;5021528;28;20419;-73
2022/07/10 07:10:04;;;;;;;14.20;2.55;;;17.40;85.10;;;;;;5012374;28;20038;-72
2022/07/10 07:12:29;;;;;;;8.88;2.38;;;17.50;85.80;;;;;;5023801;28;20277;-72
2022/07/10 07:14:55;;;;;;;11.73;3.25;;;17.50;86.10;;;;;;5017670;28;20037;-73
2022/07/10 07:17:22;;;;;;;9.95;2.40;;;17.50;86.60;;;;;;4999986;28;20030;-72
2022/07/10 07:25:20;;;;;;;12.10;2.72;;;17.40;84.70;;;;;;5019586;28;20127;-72
2022/07/10 07:27:46;;;;;;;17.77;3.28;;;17.50;86.70;;;;;;5017255;28;20044;-72
2022/07/10 07:30:14;;;;;;;9.50;3.03;;;17.50;86.80;;;;;;5026643;28;20071;-72
2022/07/10 07:32:41;;;;;;;5.80;1.63;;;17.60;87.00;;;;;;5017866;28;20022;-72
2022/07/10 07:35:07;;;;;;;4.38;1.30;;;17.60;83.00;;;;;;5030539;28;20026;-71
2022/07/10 07:37:40;;;;;;;5.28;1.33;;;17.60;78.80;;;;;;5021485;28;20026;-72
2022/07/10 07:40:08;;;;;;;7.72;2.30;;;17.70;78.50;;;;;;5010664;28;20034;-72
2022/07/10 07:42:34;;;;;;;9.93;2.60;;;17.70;85.60;;;;;;5013238;28;20033;-72
2022/07/10 07:45:00;;;;;;;13.73;3.10;;;17.70;86.70;;;;;;5028654;28;20026;-73
2022/07/10 07:47:26;;;;;;;12.88;3.67;;;17.70;86.80;;;;;;5021941;28;20098;-72
2022/07/10 07:49:51;;;;;;;13.50;3.00;;;17.70;87.30;;;;;;5025676;28;20025;-72
2022/07/10 07:52:17;;;;;;;13.25;2.83;;;17.70;87.80;;;;;;5024716;28;20022;-73
2022/07/10 07:54:43;;;;;;;10.80;2.95;;;17.70;88.00;;;;;;5022645;28;20502;-74
2022/07/10 07:57:08;;;;;;;12.55;3.00;;;17.70;88.20;;;;;;5026161;28;20022;-74
2022/07/10 07:59:34;;;;;;;10.10;2.70;;;17.70;88.30;;;;;;5019655;28;20124;-73
2022/07/10 08:02:01;;;;;;;8.45;2.55;;;17.70;87.70;;;;;;5028687;28;20010;-72
2022/07/10 08:04:26;;;;;;;11.52;2.97;;;17.70;88.10;;;;;;5018890;28;20079;-72
2022/07/10 08:06:53;;;;;;;13.25;3.45;;;17.60;88.80;;;;;;5028553;28;20030;-72
2022/07/10 08:09:19;;;;;;;6.03;1.63;;;17.60;88.70;;;;;;5018637;28;20029;-72
2022/07/10 08:11:45;;;;;;;4.35;1.23;;;17.60;86.90;;;;;;5028732;28;20105;-72
2022/07/10 08:14:12;;;;;;;3.90;1.50;;;17.70;84.80;;;;;;5016697;28;20184;-74
2022/07/10 08:16:38;;;;;;;5.93;2.03;;;17.80;85.60;;;;;;5029214;28;20041;-73
2022/07/10 08:19:04;;;;;;;10.20;2.08;;;17.90;86.00;;;;;;5023815;28;20137;-73
2022/07/10 08:21:30;;;;;;;7.47;2.47;;;17.90;88.10;;;;;;5009291;28;20022;-72
2022/07/10 08:23:56;;;;;;;9.73;2.60;;;18.00;88.30;;;;;;5020175;28;20052;-73
2022/07/10 08:26:21;;;;;;;10.43;2.95;;;18.10;87.80;;;;;;5011737;28;20484;-72
2022/07/10 08:28:47;;;;;;;8.50;1.90;;;18.10;87.40;;;;;;5017183;28;20030;-75
2022/07/10 08:31:13;;;;;;;7.50;2.80;;;18.20;86.30;;;;;;5014246;28;20025;-73
2022/07/10 08:33:38;;;;;;;8.68;2.38;;;18.20;87.50;;;;;;5019790;28;20026;-73
2022/07/10 08:36:04;;;;;;;10.10;2.38;;;18.30;87.20;;;;;;5012999;28;20118;-74
2022/07/10 08:38:30;;;;;;;10.88;2.47;;;18.30;86.80;;;;;;5026254;28;20083;-74
2022/07/10 08:40:57;;;;;;;9.45;2.65;;;18.30;86.50;;;;;;5020242;28;20094;-74
2022/07/10 08:43:25;;;;;;;9.95;2.63;;;18.20;87.00;;;;;;5027243;28;20021;-74
2022/07/10 08:45:53;;;;;;;8.05;1.88;;;18.30;85.50;;;;;;5018267;28;20049;-72
2022/07/10 08:48:23;;;;;;;8.73;1.70;;;18.30;85.50;;;;;;5025791;28;20072;-72
2022/07/10 08:50:55;;;;;;;8.95;1.70;;;18.50;81.20;;;;;;5019137;28;20014;-72
2022/07/10 08:53:25;;;;;;;4.65;1.52;;;18.70;81.40;;;;;;5010498;28;20129;-71
2022/07/10 08:55:51;;;;;;;11.15;3.10;;;18.80;80.90;;;;;;5025015;28;20745;-71
2022/07/10 08:58:18;;;;;;;9.82;2.60;;;19.00;81.90;;;;;;5027077;28;20033;-72
2022/07/10 09:00:43;;;;;;;11.82;2.45;;;19.00;84.30;;;;;;5014192;28;20033;-72
2022/07/10 09:03:09;;;;;;;6.40;1.90;;;19.10;83.50;;;;;;5009382;28;20025;-72
2022/07/10 09:05:35;;;;;;;13.43;2.42;;;19.10;82.70;;;;;;5014645;28;20022;-72
2022/07/10 09:08:01;;;;;;;10.27;2.38;;;19.30;84.60;;;;;;5027275;28;20067;-71
2022/07/10 09:10:28;;;;;;;6.80;2.28;;;19.50;81.60;;;;;;5017018;28;20026;-71
2022/07/10 09:12:54;;;;;;;11.00;2.08;;;19.60;80.00;;;;;;5024483;28;20048;-72
2022/07/10 09:15:22;;;;;;;6.30;1.77;;;19.90;77.80;;;;;;5019807;28;20025;-71
2022/07/10 09:17:53;;;;;;;6.63;1.83;;;20.00;77.30;;;;;;5027599;28;20044;-71
2022/07/10 09:20:31;;;;;;;6.70;1.58;;;20.00;76.60;;;;;;5007223;28;20026;-72
2022/07/10 09:23:19;;;;;;;7.32;1.70;;;20.10;75.50;;;;;;5020559;28;20075;-72
2022/07/10 09:25:47;;;;;;;5.18;1.48;;;20.00;74.30;;;;;;5017686;28;20096;-72
2022/07/10 09:28:15;;;;;;;5.53;1.27;;;20.10;73.90;;;;;;5027192;28;20024;-73
2022/07/10 09:30:41;;;;;;;6.50;1.52;;;20.10;75.10;;;;;;5028108;28;20021;-73
2022/07/10 09:33:19;;;;;;;5.00;1.70;;;20.30;73.80;;;;;;5018051;28;20081;-75
2022/07/10 09:36:07;;;;;;;7.22;1.88;;;20.40;73.70;;;;;;5018382;28;20087;-73
2022/07/10 09:38:44;;;;;;;6.97;1.65;;;20.50;72.90;;;;;;5031750;28;20363;-72
2022/07/10 09:41:27;;;;;;;6.32;1.40;;;20.50;70.80;;;;;;5027809;28;20025;-73
2022/07/10 09:44:01;;;;;;;5.55;1.40;;;20.50;72.70;;;;;;5015023;28;20022;-72
2022/07/10 09:46:35;;;;;;;4.07;1.52;;;20.50;71.40;;;;;;5020600;28;20064;-72
2022/07/10 09:49:14;;;;;;;3.65;1.15;;;20.50;70.80;;;;;;5015398;28;20033;-72
2022/07/10 09:51:41;;;;;;;5.03;1.23;;;20.50;70.80;;;;;;5021083;28;20029;-73
2022/07/10 09:54:12;;;;;;;9.82;1.98;;;20.50;70.50;;;;;;5015412;28;20088;-73
2022/07/10 09:56:46;;;;;;;3.80;1.27;;;20.40;70.30;;;;;;5015937;28;20078;-73
2022/07/10 09:59:16;;;;;;;4.25;1.30;;;20.40;70.40;;;;;;5010290;28;20018;-73
2022/07/10 10:01:49;;;;;;;;;;;20.40;71.10;;;;;;5007678;28;20480;-74
2022/07/10 10:04:17;;;;;;;9.55;2.05;;;20.30;70.90;;;;;;5009163;28;19912;-76
2022/07/10 10:06:45;;;;;;;6.00;1.40;;;20.20;71.90;;;;;;5027075;28;20022;-74
2022/07/10 10:09:26;;;;;;;6.22;1.50;;;20.20;72.20;;;;;;5024481;28;20402;-74
2022/07/10 10:12:04;;;;;;;5.93;1.58;;;20.30;72.10;;;;;;5027113;28;20113;-74
2022/07/10 10:14:33;;;;;;;6.78;1.73;;;20.50;72.30;;;;;;5028907;28;20022;-75
2022/07/10 10:17:01;;;;;;;4.35;1.20;;;20.80;71.00;;;;;;5026904;28;20034;-74
2022/07/10 10:22:15;;;;;;;3.85;1.02;;;21.60;67.90;;;;;;5026383;28;20044;-73
2022/07/10 10:24:42;;;;;;;7.72;1.35;;;21.90;65.90;;;;;;5023912;28;20021;-73
2022/07/10 10:27:08;;;;;;;2.85;1.17;;;22.10;65.30;;;;;;5028687;28;20045;-72
2022/07/10 10:29:37;;;;;;;4.85;1.10;;;22.30;63.90;;;;;;5021664;28;20080;-73
2022/07/10 10:32:03;;;;;;;4.68;1.02;;;22.40;63.80;;;;;;5028938;28;20176;-72
2022/07/10 10:34:42;;;;;;;6.20;1.52;;;22.30;63.60;;;;;;5012019;28;20463;-72
2022/07/10 10:37:36;;;;;;;6.55;1.25;;;22.20;64.20;;;;;;5013688;28;20877;-73
2022/07/10 10:40:02;;;;;;;6.32;1.70;;;22.10;64.80;;;;;;5010544;28;20061;-74
2022/07/10 10:42:38;;;;;;;3.70;0.90;;;22.30;63.60;;;;;;5029410;28;20084;-73
2022/07/10 10:45:23;;;;;;;5.57;1.00;;;22.60;63.70;;;;;;5021462;28;20464;-75
2022/07/10 10:48:01;;;;;;;8.93;1.95;;;22.60;62.10;;;;;;5026851;28;20438;-73
2022/07/10 10:50:53;;;;;;;2.85;0.88;;;22.50;62.10;;;;;;5019595;28;20057;-73
2022/07/10 10:53:28;;;;;;;2.38;0.90;;;22.30;62.40;;;;;;5016528;28;20033;-74
2022/07/10 10:55:59;;;;;;;3.03;1.17;;;22.10;63.30;;;;;;5017239;28;20041;-73
2022/07/10 10:58:26;;;;;;;2.88;1.17;;;22.00;63.20;;;;;;5015846;28;20033;-73
2022/07/10 11:00:52;;;;;;;2.72;1.00;;;22.00;64.50;;;;;;5023283;28;20053;-72
2022/07/10 11:03:21;;;;;;;4.35;1.25;;;21.90;62.90;;;;;;5029868;28;20048;-72
2022/07/10 11:05:48;;;;;;;3.63;1.20;;;22.00;63.10;;;;;;5023316;28;20026;-73
2022/07/10 11:08:14;;;;;;;4.00;0.98;;;22.00;63.30;;;;;;5028595;28;20476;-72
2022/07/10 11:10:44;;;;;;;3.65;1.00;;;22.00;62.60;;;;;;5019749;28;20112;-73
2022/07/10 11:13:14;;;;;;;4.07;1.30;;;22.10;63.20;;;;;;5028681;28;20486;-73
2022/07/10 11:15:53;;;;;;;3.28;1.00;;;22.30;62.80;;;;;;5018208;28;20056;-73
2022/07/10 11:18:25;;;;;;;6.80;1.23;;;22.50;62.90;;;;;;5029914;28;20089;-74
2022/07/10 11:20:55;;;;;;;3.42;1.10;;;22.80;61.00;;;;;;5020376;28;20083;-74
2022/07/10 11:23:58;;;;;;;5.00;1.48;;;22.80;61.20;;;;;;5014433;28;20072;-74
2022/07/10 11:26:25;;;;;;;2.83;1.10;;;22.70;60.90;;;;;;5013721;28;20065;-73
2022/07/10 11:28:53;;;;;;;4.28;1.40;;;22.60;61.50;;;;;;5024270;28;20025;-74
2022/07/10 11:31:21;;;;;;;4.40;1.15;;;22.60;61.30;;;;;;5025272;28;20024;-73
2022/07/10 11:33:49;;;;;;;2.45;0.95;;;22.50;61.40;;;;;;5017208;28;20018;-74
2022/07/10 11:36:17;;;;;;;3.25;0.93;;;22.50;62.50;;;;;;5024275;28;20386;-73
2022/07/10 11:38:44;;;;;;;3.60;1.05;;;22.40;62.80;;;;;;5028824;28;20444;-73
2022/07/10 11:41:23;;;;;;;6.13;1.63;;;22.60;63.60;;;;;;5020033;28;20018;-75
2022/07/10 11:43:53;;;;;;;7.38;1.65;;;22.60;62.60;;;;;;5021146;28;20495;-74
2022/07/10 11:46:21;;;;;;;4.53;1.25;;;22.50;62.30;;;;;;5016853;28;20021;-73
2022/07/10 11:48:50;;;;;;;3.53;0.93;;;22.40;62.70;;;;;;5030212;28;20057;-73
2022/07/10 11:51:29;;;;;;;3.22;1.02;;;22.50;63.60;;;;;;5022427;28;20010;-73
2022/07/10 11:53:58;;;;;;;2.95;0.82;;;22.40;62.80;;;;;;5020512;28;20100;-73
2022/07/10 11:56:24;;;;;;;6.22;1.60;;;22.50;63.00;;;;;;5022815;28;20495;-72
2022/07/10 11:58:59;;;;;;;4.03;1.30;;;22.60;62.50;;;;;;5025298;28;20025;-73
2022/07/10 12:01:26;;;;;;;7.28;1.33;;;22.80;61.70;;;;;;5017417;28;20026;-73
2022/07/10 12:04:05;;;;;;;5.22;1.60;;;23.10;61.00;;;;;;5021486;28;20030;-73
2022/07/10 12:06:37;;;;;;;6.13;1.47;;;23.20;60.10;;;;;;5005801;28;20037;-72
2022/07/10 12:09:10;;;;;;;4.00;1.08;;;23.10;60.00;;;;;;5025804;28;20694;-72
2022/07/10 12:11:37;;;;;;;2.70;1.15;;;22.90;61.20;;;;;;5014219;28;20018;-73
2022/07/10 12:14:14;;;;;;;5.05;1.10;;;22.80;62.40;;;;;;5016750;28;20444;-73
2022/07/10 12:16:42;;;;;;;4.13;0.80;;;22.90;62.00;;;;;;5020610;28;20821;-74
2022/07/10 12:19:08;;;;;;;5.05;0.90;;;23.00;61.60;;;;;;5025430;28;20022;-73
2022/07/10 12:21:35;;;;;;;3.67;1.02;;;22.90;60.80;;;;;;5010807;28;20040;-74
2022/07/10 12:24:03;;;;;;;3.83;1.00;;;22.80;60.80;;;;;;5015199;28;20096;-72
2022/07/10 12:26:37;;;;;;;4.05;0.98;;;22.60;60.90;;;;;;5019389;28;20799;-74
2022/07/10 12:29:04;;;;;;;3.30;0.90;;;22.50;60.80;;;;;;5023255;28;20052;-73
2022/07/10 12:31:32;;;;;;;7.10;1.40;;;22.50;62.10;;;;;;5015632;28;20044;-73
2022/07/10 12:34:07;;;;;;;3.90;0.90;;;22.50;62.40;;;;;;5002127;28;20025;-73
2022/07/10 12:36:51;;;;;;;3.70;1.30;;;22.60;61.90;;;;;;5000905;28;20447;-74
2022/07/10 12:39:21;;;;;;;6.10;1.08;;;22.60;61.30;;;;;;5019394;28;20029;-73
2022/07/10 12:42:03;;;;;;;5.35;0.95;;;22.60;61.60;;;;;;5019922;28;20022;-72
2022/07/10 12:44:42;;;;;;;2.30;1.20;;;22.70;62.20;;;;;;5028586;28;20017;-73
2022/07/10 12:47:14;;;;;;;4.15;0.88;;;22.80;60.90;;;;;;5022163;28;20104;-73
2022/07/10 12:49:57;;;;;;;5.70;1.13;;;23.00;62.10;;;;;;5016135;28;20759;-73
2022/07/10 12:52:31;;;;;;;5.90;1.30;;;23.30;61.50;;;;;;5017325;28;20053;-72
2022/07/10 12:55:10;;;;;;;5.28;1.20;;;23.40;59.20;;;;;;5025373;28;20030;-73
2022/07/10 12:57:52;;;;;;;5.05;1.48;;;23.50;59.10;;;;;;5016193;28;20100;-74
2022/07/10 13:00:20;;;;;;;6.28;1.33;;;23.60;57.50;;;;;;5024154;28;20442;-74